sensor_id;sensor_type;location;lat;lon;timestamp;P1;durP1;ratioP1;P2;durP2;ratioP2
46308;SDS011;32037;50.820;6.494;2024-03-07T00:01:59;5.97;;;4.20;;
46308;SDS011;32037;50.820;6.494;2024-03-07T00:04:28;4.30;;;3.60;;
46308;SDS011;32037;50.820;6.494;2024-03-07T00:06:59;4.60;;;3.57;;
46308;SDS011;32037;50.820;6.494;2024-03-07T00:09:28;5.23;;;4.00;;
46308;SDS011;32037;50.820;6.494;2024-03-07T00:11:56;4.47;;;3.20;;
46308;SDS011;32037;50.820;6.494;2024-03-07T00:14:25;5.87;;;4.43;;
46308;SDS011;32037;50.820;6.494;2024-03-07T00:16:56;6.13;;;4.90;;
46308;SDS011;32037;50.820;6.494;2024-03-07T00:19:25;5.30;;;4.23;;
46308;SDS011;32037;50.820;6.494;2024-03-07T00:21:55;7.33;;;5.70;;
46308;SDS011;32037;50.820;6.494;2024-03-07T00:24:23;4.77;;;4.27;;
46308;SDS011;32037;50.820;6.494;2024-03-07T00:26:54;5.30;;;3.97;;
46308;SDS011;32037;50.820;6.494;2024-03-07T00:29:24;6.73;;;5.13;;
46308;SDS011;32037;50.820;6.494;2024-03-07T00:31:56;3.73;;;2.80;;
46308;SDS011;32037;50.820;6.494;2024-03-07T00:34:25;6.37;;;4.63;;
46308;SDS011;32037;50.820;6.494;2024-03-07T00:36:54;5.00;;;3.90;;
46308;SDS011;32037;50.820;6.494;2024-03-07T00:39:25;4.30;;;3.70;;
46308;SDS011;32037;50.820;6.494;2024-03-07T00:41:55;5.00;;;4.50;;
46308;SDS011;32037;50.820;6.494;2024-03-07T00:44:25;4.37;;;3.63;;
46308;SDS011;32037;50.820;6.494;2024-03-07T00:46:56;4.97;;;4.20;;
46308;SDS011;32037;50.820;6.494;2024-03-07T00:49:25;4.30;;;3.57;;
46308;SDS011;32037;50.820;6.494;2024-03-07T00:51:55;4.70;;;3.77;;
46308;SDS011;32037;50.820;6.494;2024-03-07T00:54:23;6.17;;;5.10;;
46308;SDS011;32037;50.820;6.494;2024-03-07T00:56:54;5.30;;;4.70;;
46308;SDS011;32037;50.820;6.494;2024-03-07T00:59:25;7.17;;;4.83;;
46308;SDS011;32037;50.820;6.494;2024-03-07T01:01:56;8.43;;;6.40;;
46308;SDS011;32037;50.820;6.494;2024-03-07T01:04:25;8.73;;;7.07;;
46308;SDS011;32037;50.820;6.494;2024-03-07T01:07:00;7.90;;;5.73;;
46308;SDS011;32037;50.820;6.494;2024-03-07T01:09:29;6.30;;;4.97;;
46308;SDS011;32037;50.820;6.494;2024-03-07T01:11:57;5.87;;;4.50;;
46308;SDS011;32037;50.820;6.494;2024-03-07T01:14:29;5.90;;;4.93;;
46308;SDS011;32037;50.820;6.494;2024-03-07T01:17:01;7.40;;;5.80;;
46308;SDS011;32037;50.820;6.494;2024-03-07T01:19:29;6.90;;;5.07;;
46308;SDS011;32037;50.820;6.494;2024-03-07T01:21:57;5.33;;;4.50;;
46308;SDS011;32037;50.820;6.494;2024-03-07T01:24:26;6.47;;;5.50;;
46308;SDS011;32037;50.820;6.494;2024-03-07T01:26:55;5.07;;;4.37;;
46308;SDS011;32037;50.820;6.494;2024-03-07T01:29:25;7.97;;;5.13;;
46308;SDS011;32037;50.820;6.494;2024-03-07T01:31:53;5.17;;;4.67;;
46308;SDS011;32037;50.820;6.494;2024-03-07T01:34:23;6.20;;;4.57;;
46308;SDS011;32037;50.820;6.494;2024-03-07T01:36:52;6.57;;;5.30;;
46308;SDS011;32037;50.820;6.494;2024-03-07T01:39:21;4.90;;;4.37;;
46308;SDS011;32037;50.820;6.494;2024-03-07T01:41:51;5.70;;;4.70;;
46308;SDS011;32037;50.820;6.494;2024-03-07T01:44:22;5.97;;;4.60;;
46308;SDS011;32037;50.820;6.494;2024-03-07T01:46:53;5.10;;;4.33;;
46308;SDS011;32037;50.820;6.494;2024-03-07T01:49:26;6.20;;;4.83;;
46308;SDS011;32037;50.820;6.494;2024-03-07T01:51:55;5.90;;;5.30;;
46308;SDS011;32037;50.820;6.494;2024-03-07T01:54:25;5.90;;;4.63;;
46308;SDS011;32037;50.820;6.494;2024-03-07T01:56:55;5.10;;;4.20;;
46308;SDS011;32037;50.820;6.494;2024-03-07T01:59:25;6.43;;;4.57;;
46308;SDS011;32037;50.820;6.494;2024-03-07T02:01:56;5.93;;;4.50;;
46308;SDS011;32037;50.820;6.494;2024-03-07T02:04:26;5.03;;;4.20;;
46308;SDS011;32037;50.820;6.494;2024-03-07T02:06:54;4.33;;;3.90;;
46308;SDS011;32037;50.820;6.494;2024-03-07T02:09:24;6.63;;;5.50;;
46308;SDS011;32037;50.820;6.494;2024-03-07T02:11:55;7.47;;;5.97;;
46308;SDS011;32037;50.820;6.494;2024-03-07T02:14:23;6.33;;;4.90;;
46308;SDS011;32037;50.820;6.494;2024-03-07T02:16:52;6.40;;;5.20;;
46308;SDS011;32037;50.820;6.494;2024-03-07T02:19:22;6.77;;;5.57;;
46308;SDS011;32037;50.820;6.494;2024-03-07T02:21:56;6.83;;;5.30;;
46308;SDS011;32037;50.820;6.494;2024-03-07T02:24:26;5.93;;;4.80;;
46308;SDS011;32037;50.820;6.494;2024-03-07T02:26:55;6.43;;;5.20;;
46308;SDS011;32037;50.820;6.494;2024-03-07T02:29:24;7.37;;;6.00;;
46308;SDS011;32037;50.820;6.494;2024-03-07T02:31:53;5.63;;;4.57;;
46308;SDS011;32037;50.820;6.494;2024-03-07T02:34:22;6.10;;;3.90;;
46308;SDS011;32037;50.820;6.494;2024-03-07T02:36:56;4.97;;;4.17;;
46308;SDS011;32037;50.820;6.494;2024-03-07T02:39:25;5.40;;;4.83;;
46308;SDS011;32037;50.820;6.494;2024-03-07T02:41:55;6.10;;;4.57;;
46308;SDS011;32037;50.820;6.494;2024-03-07T02:44:23;7.53;;;5.00;;
46308;SDS011;32037;50.820;6.494;2024-03-07T02:46:52;6.47;;;4.97;;
46308;SDS011;32037;50.820;6.494;2024-03-07T02:49:21;5.07;;;4.43;;
46308;SDS011;32037;50.820;6.494;2024-03-07T02:51:50;5.70;;;4.13;;
46308;SDS011;32037;50.820;6.494;2024-03-07T02:54:20;8.90;;;5.47;;
46308;SDS011;32037;50.820;6.494;2024-03-07T02:56:51;5.93;;;4.80;;
46308;SDS011;32037;50.820;6.494;2024-03-07T02:59:22;4.97;;;4.23;;
46308;SDS011;32037;50.820;6.494;2024-03-07T03:01:53;5.60;;;4.63;;
46308;SDS011;32037;50.820;6.494;2024-03-07T03:04:25;6.33;;;4.47;;
46308;SDS011;32037;50.820;6.494;2024-03-07T03:06:55;5.00;;;4.50;;
46308;SDS011;32037;50.820;6.494;2024-03-07T03:09:25;4.83;;;3.77;;
46308;SDS011;32037;50.820;6.494;2024-03-07T03:11:55;4.77;;;4.20;;
46308;SDS011;32037;50.820;6.494;2024-03-07T03:14:25;5.00;;;4.00;;
46308;SDS011;32037;50.820;6.494;2024-03-07T03:16:53;6.00;;;4.80;;
46308;SDS011;32037;50.820;6.494;2024-03-07T03:19:22;5.40;;;4.23;;
46308;SDS011;32037;50.820;6.494;2024-03-07T03:21:55;5.57;;;4.07;;
46308;SDS011;32037;50.820;6.494;2024-03-07T03:24:23;5.10;;;4.60;;
46308;SDS011;32037;50.820;6.494;2024-03-07T03:26:56;6.43;;;4.90;;
46308;SDS011;32037;50.820;6.494;2024-03-07T03:29:25;5.00;;;4.27;;
46308;SDS011;32037;50.820;6.494;2024-03-07T03:31:55;5.07;;;4.23;;
46308;SDS011;32037;50.820;6.494;2024-03-07T03:34:25;4.30;;;3.23;;
46308;SDS011;32037;50.820;6.494;2024-03-07T03:36:54;6.60;;;5.03;;
46308;SDS011;32037;50.820;6.494;2024-03-07T03:39:22;4.27;;;3.70;;
46308;SDS011;32037;50.820;6.494;2024-03-07T03:41:56;4.57;;;4.10;;
46308;SDS011;32037;50.820;6.494;2024-03-07T03:44:25;5.87;;;4.60;;
46308;SDS011;32037;50.820;6.494;2024-03-07T03:46:55;5.43;;;4.33;;
46308;SDS011;32037;50.820;6.494;2024-03-07T03:49:23;6.07;;;5.47;;
46308;SDS011;32037;50.820;6.494;2024-03-07T03:51:52;6.37;;;5.07;;
46308;SDS011;32037;50.820;6.494;2024-03-07T03:54:23;4.73;;;4.00;;
46308;SDS011;32037;50.820;6.494;2024-03-07T03:56:56;6.53;;;5.33;;
46308;SDS011;32037;50.820;6.494;2024-03-07T03:59:25;6.33;;;4.30;;
46308;SDS011;32037;50.820;6.494;2024-03-07T04:01:53;4.87;;;3.90;;
46308;SDS011;32037;50.820;6.494;2024-03-07T04:04:24;5.43;;;4.43;;
46308;SDS011;32037;50.820;6.494;2024-03-07T04:06:53;6.03;;;4.23;;
46308;SDS011;32037;50.820;6.494;2024-03-07T04:09:23;5.70;;;4.30;;
46308;SDS011;32037;50.820;6.494;2024-03-07T04:11:57;4.77;;;4.10;;
46308;SDS011;32037;50.820;6.494;2024-03-07T04:14:25;8.40;;;5.10;;
46308;SDS011;32037;50.820;6.494;2024-03-07T04:16:55;6.40;;;5.10;;
46308;SDS011;32037;50.820;6.494;2024-03-07T04:19:25;5.87;;;4.20;;
46308;SDS011;32037;50.820;6.494;2024-03-07T04:21:55;5.63;;;4.93;;
46308;SDS011;32037;50.820;6.494;2024-03-07T04:24:25;6.83;;;5.57;;
46308;SDS011;32037;50.820;6.494;2024-03-07T04:26:56;10.17;;;7.40;;
46308;SDS011;32037;50.820;6.494;2024-03-07T04:29:25;5.80;;;5.00;;
46308;SDS011;32037;50.820;6.494;2024-03-07T04:31:55;5.60;;;5.00;;
46308;SDS011;32037;50.820;6.494;2024-03-07T04:34:23;6.70;;;5.23;;
46308;SDS011;32037;50.820;6.494;2024-03-07T04:36:52;4.43;;;3.40;;
46308;SDS011;32037;50.820;6.494;2024-03-07T04:39:21;5.50;;;4.27;;
46308;SDS011;32037;50.820;6.494;2024-03-07T04:41:56;6.07;;;4.60;;
46308;SDS011;32037;50.820;6.494;2024-03-07T04:44:25;5.27;;;4.20;;
46308;SDS011;32037;50.820;6.494;2024-03-07T04:46:54;5.40;;;4.57;;
46308;SDS011;32037;50.820;6.494;2024-03-07T04:49:26;6.13;;;4.40;;
46308;SDS011;32037;50.820;6.494;2024-03-07T04:51:55;5.47;;;4.70;;
46308;SDS011;32037;50.820;6.494;2024-03-07T04:54:25;6.03;;;4.70;;
46308;SDS011;32037;50.820;6.494;2024-03-07T04:56:54;6.03;;;5.43;;
46308;SDS011;32037;50.820;6.494;2024-03-07T04:59:25;5.00;;;3.97;;
46308;SDS011;32037;50.820;6.494;2024-03-07T05:01:55;7.20;;;4.70;;
46308;SDS011;32037;50.820;6.494;2024-03-07T05:04:25;5.30;;;4.73;;
46308;SDS011;32037;50.820;6.494;2024-03-07T05:06:55;4.70;;;3.87;;
46308;SDS011;32037;50.820;6.494;2024-03-07T05:09:25;5.83;;;5.33;;
46308;SDS011;32037;50.820;6.494;2024-03-07T05:11:56;4.80;;;4.20;;
46308;SDS011;32037;50.820;6.494;2024-03-07T05:14:24;5.57;;;5.00;;
46308;SDS011;32037;50.820;6.494;2024-03-07T05:16:55;6.03;;;4.03;;
46308;SDS011;32037;50.820;6.494;2024-03-07T05:19:35;5.93;;;4.40;;
46308;SDS011;32037;50.820;6.494;2024-03-07T05:22:04;4.73;;;4.10;;
46308;SDS011;32037;50.820;6.494;2024-03-07T05:24:35;5.20;;;4.60;;
46308;SDS011;32037;50.820;6.494;2024-03-07T05:27:06;5.73;;;4.50;;
46308;SDS011;32037;50.820;6.494;2024-03-07T05:29:35;4.57;;;4.10;;
46308;SDS011;32037;50.820;6.494;2024-03-07T05:32:19;5.80;;;4.77;;
46308;SDS011;32037;50.820;6.494;2024-03-07T05:34:52;8.03;;;4.20;;
46308;SDS011;32037;50.820;6.494;2024-03-07T05:37:22;4.87;;;4.37;;
46308;SDS011;32037;50.820;6.494;2024-03-07T05:39:50;8.00;;;6.30;;
46308;SDS011;32037;50.820;6.494;2024-03-07T05:42:24;5.73;;;4.90;;
46308;SDS011;32037;50.820;6.494;2024-03-07T05:44:55;5.70;;;4.70;;
46308;SDS011;32037;50.820;6.494;2024-03-07T05:47:25;5.60;;;4.40;;
46308;SDS011;32037;50.820;6.494;2024-03-07T05:49:54;5.70;;;5.10;;
46308;SDS011;32037;50.820;6.494;2024-03-07T05:52:23;7.37;;;5.53;;
46308;SDS011;32037;50.820;6.494;2024-03-07T05:54:51;5.50;;;4.50;;
46308;SDS011;32037;50.820;6.494;2024-03-07T05:57:25;4.53;;;3.70;;
46308;SDS011;32037;50.820;6.494;2024-03-07T05:59:53;5.20;;;4.70;;
46308;SDS011;32037;50.820;6.494;2024-03-07T06:02:25;5.53;;;4.90;;
46308;SDS011;32037;50.820;6.494;2024-03-07T06:04:54;5.60;;;4.63;;
46308;SDS011;32037;50.820;6.494;2024-03-07T06:07:25;6.10;;;5.47;;
46308;SDS011;32037;50.820;6.494;2024-03-07T06:09:54;7.23;;;5.53;;
46308;SDS011;32037;50.820;6.494;2024-03-07T06:12:24;6.57;;;4.77;;
46308;SDS011;32037;50.820;6.494;2024-03-07T06:14:54;4.60;;;3.80;;
46308;SDS011;32037;50.820;6.494;2024-03-07T06:17:22;5.60;;;4.07;;
46308;SDS011;32037;50.820;6.494;2024-03-07T06:19:54;6.53;;;4.20;;
46308;SDS011;32037;50.820;6.494;2024-03-07T06:22:25;5.87;;;4.93;;
46308;SDS011;32037;50.820;6.494;2024-03-07T06:24:55;4.57;;;3.80;;
46308;SDS011;32037;50.820;6.494;2024-03-07T06:27:31;5.50;;;4.20;;
46308;SDS011;32037;50.820;6.494;2024-03-07T06:30:05;5.70;;;5.00;;
46308;SDS011;32037;50.820;6.494;2024-03-07T06:32:35;5.00;;;4.03;;
46308;SDS011;32037;50.820;6.494;2024-03-07T06:35:05;4.33;;;3.73;;
46308;SDS011;32037;50.820;6.494;2024-03-07T06:37:35;5.37;;;3.90;;
46308;SDS011;32037;50.820;6.494;2024-03-07T06:40:05;6.27;;;5.10;;
46308;SDS011;32037;50.820;6.494;2024-03-07T06:42:40;6.50;;;4.57;;
46308;SDS011;32037;50.820;6.494;2024-03-07T06:45:10;4.00;;;3.53;;
46308;SDS011;32037;50.820;6.494;2024-03-07T06:47:40;5.30;;;4.03;;
46308;SDS011;32037;50.820;6.494;2024-03-07T06:50:10;5.40;;;4.63;;
46308;SDS011;32037;50.820;6.494;2024-03-07T06:52:55;6.20;;;4.23;;
46308;SDS011;32037;50.820;6.494;2024-03-07T06:55:26;4.83;;;3.70;;
46308;SDS011;32037;50.820;6.494;2024-03-07T06:57:56;5.57;;;4.30;;
46308;SDS011;32037;50.820;6.494;2024-03-07T07:00:25;4.87;;;3.87;;
46308;SDS011;32037;50.820;6.494;2024-03-07T07:02:53;5.50;;;4.57;;
46308;SDS011;32037;50.820;6.494;2024-03-07T07:05:25;5.50;;;4.90;;
46308;SDS011;32037;50.820;6.494;2024-03-07T07:07:54;5.13;;;4.00;;
46308;SDS011;32037;50.820;6.494;2024-03-07T07:10:25;6.03;;;4.57;;
46308;SDS011;32037;50.820;6.494;2024-03-07T07:12:56;5.60;;;4.63;;
46308;SDS011;32037;50.820;6.494;2024-03-07T07:15:24;4.87;;;3.70;;
46308;SDS011;32037;50.820;6.494;2024-03-07T07:17:55;4.57;;;3.77;;
46308;SDS011;32037;50.820;6.494;2024-03-07T07:20:24;5.80;;;4.20;;
46308;SDS011;32037;50.820;6.494;2024-03-07T07:22:53;5.30;;;4.07;;
46308;SDS011;32037;50.820;6.494;2024-03-07T07:25:24;5.20;;;4.60;;
46308;SDS011;32037;50.820;6.494;2024-03-07T07:27:56;5.37;;;4.30;;
46308;SDS011;32037;50.820;6.494;2024-03-07T07:30:25;5.07;;;4.27;;
46308;SDS011;32037;50.820;6.494;2024-03-07T07:32:55;4.60;;;4.00;;
46308;SDS011;32037;50.820;6.494;2024-03-07T07:35:25;6.10;;;4.60;;
46308;SDS011;32037;50.820;6.494;2024-03-07T07:37:54;6.37;;;4.90;;
46308;SDS011;32037;50.820;6.494;2024-03-07T07:40:25;6.73;;;4.63;;
46308;SDS011;32037;50.820;6.494;2024-03-07T07:42:56;6.80;;;6.00;;
46308;SDS011;32037;50.820;6.494;2024-03-07T07:45:24;6.90;;;5.17;;
46308;SDS011;32037;50.820;6.494;2024-03-07T07:47:55;6.37;;;4.80;;
46308;SDS011;32037;50.820;6.494;2024-03-07T07:50:24;7.30;;;5.90;;
46308;SDS011;32037;50.820;6.494;2024-03-07T07:52:54;9.00;;;8.10;;
46308;SDS011;32037;50.820;6.494;2024-03-07T07:55:24;6.90;;;5.33;;
46308;SDS011;32037;50.820;6.494;2024-03-07T07:57:56;6.60;;;4.97;;
46308;SDS011;32037;50.820;6.494;2024-03-07T08:00:26;8.57;;;6.80;;
46308;SDS011;32037;50.820;6.494;2024-03-07T08:03:00;6.20;;;4.67;;
46308;SDS011;32037;50.820;6.494;2024-03-07T08:05:30;5.17;;;4.60;;
46308;SDS011;32037;50.820;6.494;2024-03-07T08:08:00;4.80;;;3.70;;
46308;SDS011;32037;50.820;6.494;2024-03-07T08:10:35;6.23;;;4.40;;
46308;SDS011;32037;50.820;6.494;2024-03-07T08:13:11;6.80;;;5.43;;
46308;SDS011;32037;50.820;6.494;2024-03-07T08:15:41;6.83;;;5.30;;
46308;SDS011;32037;50.820;6.494;2024-03-07T08:18:10;5.57;;;5.00;;
46308;SDS011;32037;50.820;6.494;2024-03-07T08:20:40;5.80;;;4.47;;
46308;SDS011;32037;50.820;6.494;2024-03-07T08:23:10;7.30;;;5.50;;
46308;SDS011;32037;50.820;6.494;2024-03-07T08:25:40;8.83;;;7.03;;
46308;SDS011;32037;50.820;6.494;2024-03-07T08:28:09;5.23;;;4.63;;
46308;SDS011;32037;50.820;6.494;2024-03-07T08:30:40;4.77;;;4.23;;
46308;SDS011;32037;50.820;6.494;2024-03-07T08:33:10;6.57;;;5.30;;
46308;SDS011;32037;50.820;6.494;2024-03-07T08:35:40;6.40;;;4.80;;
46308;SDS011;32037;50.820;6.494;2024-03-07T08:38:10;5.60;;;4.47;;
46308;SDS011;32037;50.820;6.494;2024-03-07T08:40:38;5.57;;;4.93;;
46308;SDS011;32037;50.820;6.494;2024-03-07T08:43:09;5.50;;;4.27;;
46308;SDS011;32037;50.820;6.494;2024-03-07T08:45:39;5.50;;;4.90;;
46308;SDS011;32037;50.820;6.494;2024-03-07T08:48:08;6.30;;;5.03;;
46308;SDS011;32037;50.820;6.494;2024-03-07T08:50:38;5.60;;;4.47;;
46308;SDS011;32037;50.820;6.494;2024-03-07T08:53:10;5.53;;;4.47;;
46308;SDS011;32037;50.820;6.494;2024-03-07T08:55:40;6.13;;;5.37;;
46308;SDS011;32037;50.820;6.494;2024-03-07T08:58:10;5.20;;;4.23;;
46308;SDS011;32037;50.820;6.494;2024-03-07T09:00:41;5.30;;;4.60;;
46308;SDS011;32037;50.820;6.494;2024-03-07T09:03:14;6.90;;;4.87;;
46308;SDS011;32037;50.820;6.494;2024-03-07T09:05:45;7.07;;;5.37;;
46308;SDS011;32037;50.820;6.494;2024-03-07T09:08:14;5.50;;;4.60;;
46308;SDS011;32037;50.820;6.494;2024-03-07T09:10:44;5.47;;;4.87;;
46308;SDS011;32037;50.820;6.494;2024-03-07T09:13:15;5.87;;;4.53;;
46308;SDS011;32037;50.820;6.494;2024-03-07T09:15:45;4.93;;;4.33;;
46308;SDS011;32037;50.820;6.494;2024-03-07T09:18:14;6.97;;;4.40;;
46308;SDS011;32037;50.820;6.494;2024-03-07T09:20:44;7.97;;;7.03;;
46308;SDS011;32037;50.820;6.494;2024-03-07T09:23:14;11.40;;;8.20;;
46308;SDS011;32037;50.820;6.494;2024-03-07T09:25:43;7.17;;;6.40;;
46308;SDS011;32037;50.820;6.494;2024-03-07T09:28:13;6.10;;;4.93;;
46308;SDS011;32037;50.820;6.494;2024-03-07T09:30:46;6.63;;;5.50;;
46308;SDS011;32037;50.820;6.494;2024-03-07T09:33:15;5.63;;;4.77;;
46308;SDS011;32037;50.820;6.494;2024-03-07T09:35:46;4.50;;;3.83;;
46308;SDS011;32037;50.820;6.494;2024-03-07T09:38:14;6.07;;;4.60;;
46308;SDS011;32037;50.820;6.494;2024-03-07T09:40:43;5.40;;;4.30;;
46308;SDS011;32037;50.820;6.494;2024-03-07T09:43:11;4.77;;;3.93;;
46308;SDS011;32037;50.820;6.494;2024-03-07T09:45:41;7.50;;;5.80;;
46308;SDS011;32037;50.820;6.494;2024-03-07T09:48:15;5.50;;;4.03;;
46308;SDS011;32037;50.820;6.494;2024-03-07T09:50:44;5.70;;;5.07;;
46308;SDS011;32037;50.820;6.494;2024-03-07T09:53:19;7.17;;;5.07;;
46308;SDS011;32037;50.820;6.494;2024-03-07T09:55:48;6.27;;;4.70;;
46308;SDS011;32037;50.820;6.494;2024-03-07T09:58:20;5.60;;;4.60;;
46308;SDS011;32037;50.820;6.494;2024-03-07T10:00:49;5.30;;;4.67;;
46308;SDS011;32037;50.820;6.494;2024-03-07T10:03:22;5.23;;;4.70;;
46308;SDS011;32037;50.820;6.494;2024-03-07T10:05:55;6.40;;;4.70;;
46308;SDS011;32037;50.820;6.494;2024-03-07T10:08:25;5.87;;;4.90;;
46308;SDS011;32037;50.820;6.494;2024-03-07T10:10:55;5.87;;;4.47;;
46308;SDS011;32037;50.820;6.494;2024-03-07T10:13:25;5.90;;;4.90;;
46308;SDS011;32037;50.820;6.494;2024-03-07T10:15:56;7.27;;;5.83;;
46308;SDS011;32037;50.820;6.494;2024-03-07T10:18:27;6.70;;;5.07;;
46308;SDS011;32037;50.820;6.494;2024-03-07T10:20:56;5.90;;;5.30;;
46308;SDS011;32037;50.820;6.494;2024-03-07T10:23:25;6.03;;;4.93;;
46308;SDS011;32037;50.820;6.494;2024-03-07T10:25:53;9.03;;;4.67;;
46308;SDS011;32037;50.820;6.494;2024-03-07T10:28:23;5.60;;;4.67;;
46308;SDS011;32037;50.820;6.494;2024-03-07T10:30:54;5.03;;;4.50;;
46308;SDS011;32037;50.820;6.494;2024-03-07T10:33:26;7.40;;;5.07;;
46308;SDS011;32037;50.820;6.494;2024-03-07T10:35:59;6.17;;;4.50;;
46308;SDS011;32037;50.820;6.494;2024-03-07T10:38:29;7.70;;;5.40;;
46308;SDS011;32037;50.820;6.494;2024-03-07T10:40:58;6.60;;;5.20;;
46308;SDS011;32037;50.820;6.494;2024-03-07T10:43:28;6.10;;;5.10;;
46308;SDS011;32037;50.820;6.494;2024-03-07T10:45:59;7.93;;;5.83;;
46308;SDS011;32037;50.820;6.494;2024-03-07T10:48:38;10.20;;;7.93;;
46308;SDS011;32037;50.820;6.494;2024-03-07T10:51:10;7.10;;;5.33;;
46308;SDS011;32037;50.820;6.494;2024-03-07T10:53:51;7.20;;;4.57;;
46308;SDS011;32037;50.820;6.494;2024-03-07T10:56:29;7.80;;;4.93;;
46308;SDS011;32037;50.820;6.494;2024-03-07T10:59:11;6.60;;;4.80;;
46308;SDS011;32037;50.820;6.494;2024-03-07T11:01:46;7.47;;;5.70;;
46308;SDS011;32037;50.820;6.494;2024-03-07T11:04:24;7.30;;;4.90;;
46308;SDS011;32037;50.820;6.494;2024-03-07T11:06:55;6.63;;;5.30;;
46308;SDS011;32037;50.820;6.494;2024-03-07T11:09:25;6.33;;;5.70;;
46308;SDS011;32037;50.820;6.494;2024-03-07T11:11:59;7.03;;;5.33;;
46308;SDS011;32037;50.820;6.494;2024-03-07T11:14:30;5.90;;;5.30;;
46308;SDS011;32037;50.820;6.494;2024-03-07T11:16:59;8.40;;;6.17;;
46308;SDS011;32037;50.820;6.494;2024-03-07T11:19:32;6.97;;;5.47;;
46308;SDS011;32037;50.820;6.494;2024-03-07T11:22:05;8.37;;;5.97;;
46308;SDS011;32037;50.820;6.494;2024-03-07T11:24:43;7.43;;;5.43;;
46308;SDS011;32037;50.820;6.494;2024-03-07T11:27:12;8.77;;;6.43;;
46308;SDS011;32037;50.820;6.494;2024-03-07T11:29:47;7.83;;;6.97;;
46308;SDS011;32037;50.820;6.494;2024-03-07T11:32:21;7.20;;;5.63;;
46308;SDS011;32037;50.820;6.494;2024-03-07T11:34:55;9.63;;;7.40;;
46308;SDS011;32037;50.820;6.494;2024-03-07T11:37:37;9.70;;;6.07;;
46308;SDS011;32037;50.820;6.494;2024-03-07T11:40:11;8.67;;;6.00;;
46308;SDS011;32037;50.820;6.494;2024-03-07T11:42:46;6.60;;;5.20;;
46308;SDS011;32037;50.820;6.494;2024-03-07T11:45:16;7.47;;;6.27;;
46308;SDS011;32037;50.820;6.494;2024-03-07T11:47:52;8.90;;;7.00;;
46308;SDS011;32037;50.820;6.494;2024-03-07T11:50:28;9.10;;;7.07;;
46308;SDS011;32037;50.820;6.494;2024-03-07T11:53:02;10.40;;;7.43;;
46308;SDS011;32037;50.820;6.494;2024-03-07T11:55:34;10.33;;;7.37;;
46308;SDS011;32037;50.820;6.494;2024-03-07T11:58:11;10.20;;;6.70;;
46308;SDS011;32037;50.820;6.494;2024-03-07T12:00:40;8.97;;;6.90;;
46308;SDS011;32037;50.820;6.494;2024-03-07T12:03:11;10.10;;;6.80;;
46308;SDS011;32037;50.820;6.494;2024-03-07T12:05:46;9.40;;;7.47;;
46308;SDS011;32037;50.820;6.494;2024-03-07T12:08:15;7.90;;;5.93;;
46308;SDS011;32037;50.820;6.494;2024-03-07T12:10:44;11.43;;;9.27;;
46308;SDS011;32037;50.820;6.494;2024-03-07T12:13:15;7.90;;;7.10;;
46308;SDS011;32037;50.820;6.494;2024-03-07T12:15:45;9.00;;;7.40;;
46308;SDS011;32037;50.820;6.494;2024-03-07T12:18:15;9.47;;;7.50;;
46308;SDS011;32037;50.820;6.494;2024-03-07T12:20:46;8.67;;;7.33;;
46308;SDS011;32037;50.820;6.494;2024-03-07T12:23:22;9.07;;;7.80;;
46308;SDS011;32037;50.820;6.494;2024-03-07T12:25:59;8.57;;;7.67;;
46308;SDS011;32037;50.820;6.494;2024-03-07T12:28:29;8.47;;;6.70;;
46308;SDS011;32037;50.820;6.494;2024-03-07T12:31:00;6.97;;;6.07;;
46308;SDS011;32037;50.820;6.494;2024-03-07T12:33:30;7.97;;;5.83;;
46308;SDS011;32037;50.820;6.494;2024-03-07T12:36:07;7.50;;;6.40;;
46308;SDS011;32037;50.820;6.494;2024-03-07T12:38:38;12.40;;;8.20;;
46308;SDS011;32037;50.820;6.494;2024-03-07T12:41:10;8.30;;;6.47;;
46308;SDS011;32037;50.820;6.494;2024-03-07T12:43:45;9.63;;;6.57;;
46308;SDS011;32037;50.820;6.494;2024-03-07T12:46:14;9.47;;;7.80;;
46308;SDS011;32037;50.820;6.494;2024-03-07T12:48:45;10.03;;;7.00;;
46308;SDS011;32037;50.820;6.494;2024-03-07T12:51:16;9.50;;;7.20;;
46308;SDS011;32037;50.820;6.494;2024-03-07T12:53:50;8.97;;;6.70;;
46308;SDS011;32037;50.820;6.494;2024-03-07T12:56:23;9.63;;;8.20;;
46308;SDS011;32037;50.820;6.494;2024-03-07T12:58:55;8.50;;;6.60;;
46308;SDS011;32037;50.820;6.494;2024-03-07T13:01:26;8.23;;;6.80;;
46308;SDS011;32037;50.820;6.494;2024-03-07T13:03:54;11.53;;;7.60;;
46308;SDS011;32037;50.820;6.494;2024-03-07T13:06:26;8.87;;;6.97;;
46308;SDS011;32037;50.820;6.494;2024-03-07T13:08:56;9.13;;;7.07;;
46308;SDS011;32037;50.820;6.494;2024-03-07T13:11:25;8.80;;;7.60;;
46308;SDS011;32037;50.820;6.494;2024-03-07T13:13:59;9.87;;;6.80;;
46308;SDS011;32037;50.820;6.494;2024-03-07T13:16:29;9.17;;;8.10;;
46308;SDS011;32037;50.820;6.494;2024-03-07T13:18:59;9.47;;;7.00;;
46308;SDS011;32037;50.820;6.494;2024-03-07T13:21:35;8.27;;;6.90;;
46308;SDS011;32037;50.820;6.494;2024-03-07T13:24:05;10.27;;;7.50;;
46308;SDS011;32037;50.820;6.494;2024-03-07T13:26:35;9.47;;;6.87;;
46308;SDS011;32037;50.820;6.494;2024-03-07T13:29:05;12.30;;;8.10;;
46308;SDS011;32037;50.820;6.494;2024-03-07T13:31:35;9.50;;;6.20;;
46308;SDS011;32037;50.820;6.494;2024-03-07T13:34:04;7.73;;;7.00;;
46308;SDS011;32037;50.820;6.494;2024-03-07T13:36:42;8.93;;;6.77;;
46308;SDS011;32037;50.820;6.494;2024-03-07T13:39:11;11.47;;;8.53;;
46308;SDS011;32037;50.820;6.494;2024-03-07T13:41:40;10.77;;;7.30;;
46308;SDS011;32037;50.820;6.494;2024-03-07T13:44:10;8.03;;;6.30;;
46308;SDS011;32037;50.820;6.494;2024-03-07T13:46:40;9.30;;;7.63;;
46308;SDS011;32037;50.820;6.494;2024-03-07T13:49:09;10.90;;;7.87;;
46308;SDS011;32037;50.820;6.494;2024-03-07T13:51:42;9.43;;;7.27;;
46308;SDS011;32037;50.820;6.494;2024-03-07T13:54:19;9.20;;;7.17;;
46308;SDS011;32037;50.820;6.494;2024-03-07T13:57:01;8.97;;;7.50;;
46308;SDS011;32037;50.820;6.494;2024-03-07T13:59:51;8.25;;;6.95;;
46308;SDS011;32037;50.820;6.494;2024-03-07T14:02:47;12.82;;;10.52;;
46308;SDS011;32037;50.820;6.494;2024-03-07T14:05:54;11.10;;;8.23;;
46308;SDS011;32037;50.820;6.494;2024-03-07T14:11:49;9.90;;;8.83;;
46308;SDS011;32037;50.820;6.494;2024-03-07T14:18:11;9.43;;;7.40;;
46308;SDS011;32037;50.820;6.494;2024-03-07T14:27:25;8.80;;;7.00;;
46308;SDS011;32037;50.820;6.494;2024-03-07T14:30:11;8.97;;;6.93;;
46308;SDS011;32037;50.820;6.494;2024-03-07T14:32:53;8.50;;;6.07;;
46308;SDS011;32037;50.820;6.494;2024-03-07T14:35:24;7.10;;;6.40;;
46308;SDS011;32037;50.820;6.494;2024-03-07T14:38:04;8.53;;;6.47;;
46308;SDS011;32037;50.820;6.494;2024-03-07T14:40:51;8.20;;;7.00;;
46308;SDS011;32037;50.820;6.494;2024-03-07T14:43:22;9.20;;;6.50;;
46308;SDS011;32037;50.820;6.494;2024-03-07T14:45:51;6.90;;;6.20;;
46308;SDS011;32037;50.820;6.494;2024-03-07T14:48:22;8.27;;;6.47;;
46308;SDS011;32037;50.820;6.494;2024-03-07T14:50:51;7.97;;;7.17;;
46308;SDS011;32037;50.820;6.494;2024-03-07T14:53:20;8.07;;;7.13;;
46308;SDS011;32037;50.820;6.494;2024-03-07T14:55:49;7.43;;;6.43;;
46308;SDS011;32037;50.820;6.494;2024-03-07T14:58:23;8.00;;;6.67;;
46308;SDS011;32037;50.820;6.494;2024-03-07T15:00:51;7.53;;;6.70;;
46308;SDS011;32037;50.820;6.494;2024-03-07T15:03:26;7.03;;;6.33;;
46308;SDS011;32037;50.820;6.494;2024-03-07T15:05:56;9.73;;;7.30;;
46308;SDS011;32037;50.820;6.494;2024-03-07T15:08:25;7.70;;;6.43;;
46308;SDS011;32037;50.820;6.494;2024-03-07T15:10:56;8.90;;;7.03;;
46308;SDS011;32037;50.820;6.494;2024-03-07T15:13:31;8.50;;;6.70;;
46308;SDS011;32037;50.820;6.494;2024-03-07T15:16:03;7.03;;;5.87;;
46308;SDS011;32037;50.820;6.494;2024-03-07T15:18:34;8.43;;;5.73;;
46308;SDS011;32037;50.820;6.494;2024-03-07T15:21:04;6.57;;;5.87;;
46308;SDS011;32037;50.820;6.494;2024-03-07T15:23:36;7.53;;;6.03;;
46308;SDS011;32037;50.820;6.494;2024-03-07T15:26:05;6.80;;;6.10;;